sensor_id;sensor_type;location;lat;lon;timestamp;P1;durP1;ratioP1;P2;durP2;ratioP2
43311;SDS011;30041;48.300;16.352;2023-02-10T00:00:42;3.70;;;2.50;;
43311;SDS011;30041;48.300;16.352;2023-02-10T00:03:08;3.17;;;2.50;;
43311;SDS011;30041;48.300;16.352;2023-02-10T00:05:34;2.50;;;2.05;;
43311;SDS011;30041;48.300;16.352;2023-02-10T00:07:59;4.38;;;2.70;;
43311;SDS011;30041;48.300;16.352;2023-02-10T00:10:25;3.35;;;2.08;;
43311;SDS011;30041;48.300;16.352;2023-02-10T00:12:50;3.22;;;2.38;;
43311;SDS011;30041;48.300;16.352;2023-02-10T00:15:16;2.95;;;1.95;;
43311;SDS011;30041;48.300;16.352;2023-02-10T00:17:41;4.43;;;2.40;;
43311;SDS011;30041;48.300;16.352;2023-02-10T00:20:07;2.88;;;2.15;;
43311;SDS011;30041;48.300;16.352;2023-02-10T00:22:33;2.97;;;2.30;;
43311;SDS011;30041;48.300;16.352;2023-02-10T00:24:59;2.47;;;1.90;;
43311;SDS011;30041;48.300;16.352;2023-02-10T00:27:24;3.33;;;2.00;;
43311;SDS011;30041;48.300;16.352;2023-02-10T00:29:50;3.10;;;2.20;;
43311;SDS011;30041;48.300;16.352;2023-02-10T00:32:16;2.40;;;1.90;;
43311;SDS011;30041;48.300;16.352;2023-02-10T00:34:43;2.85;;;2.10;;
43311;SDS011;30041;48.300;16.352;2023-02-10T00:37:09;2.95;;;2.20;;
43311;SDS011;30041;48.300;16.352;2023-02-10T00:39:34;3.30;;;1.92;;
43311;SDS011;30041;48.300;16.352;2023-02-10T00:42:00;2.53;;;2.00;;
43311;SDS011;30041;48.300;16.352;2023-02-10T00:44:26;2.70;;;2.10;;
43311;SDS011;30041;48.300;16.352;2023-02-10T00:46:51;2.50;;;1.90;;
43311;SDS011;30041;48.300;16.352;2023-02-10T00:49:17;3.88;;;2.00;;
43311;SDS011;30041;48.300;16.352;2023-02-10T00:51:42;2.75;;;2.00;;
43311;SDS011;30041;48.300;16.352;2023-02-10T00:54:09;2.53;;;1.88;;
43311;SDS011;30041;48.300;16.352;2023-02-10T00:56:39;2.40;;;1.92;;
43311;SDS011;30041;48.300;16.352;2023-02-10T00:59:05;2.47;;;1.88;;
43311;SDS011;30041;48.300;16.352;2023-02-10T01:01:30;2.53;;;1.90;;
43311;SDS011;30041;48.300;16.352;2023-02-10T01:03:56;4.15;;;2.20;;
43311;SDS011;30041;48.300;16.352;2023-02-10T01:06:21;2.58;;;1.67;;
43311;SDS011;30041;48.300;16.352;2023-02-10T01:08:47;3.10;;;1.58;;
43311;SDS011;30041;48.300;16.352;2023-02-10T01:11:13;2.45;;;1.65;;
43311;SDS011;30041;48.300;16.352;2023-02-10T01:13:40;2.20;;;1.73;;
43311;SDS011;30041;48.300;16.352;2023-02-10T01:16:07;2.60;;;1.90;;
43311;SDS011;30041;48.300;16.352;2023-02-10T01:18:36;2.33;;;1.58;;
43311;SDS011;30041;48.300;16.352;2023-02-10T01:21:08;2.40;;;1.75;;
43311;SDS011;30041;48.300;16.352;2023-02-10T01:23:35;2.38;;;1.73;;
43311;SDS011;30041;48.300;16.352;2023-02-10T01:26:00;3.03;;;1.90;;
43311;SDS011;30041;48.300;16.352;2023-02-10T01:28:26;3.03;;;1.70;;
43311;SDS011;30041;48.300;16.352;2023-02-10T01:30:52;1.88;;;1.48;;
43311;SDS011;30041;48.300;16.352;2023-02-10T01:33:17;2.83;;;1.80;;
43311;SDS011;30041;48.300;16.352;2023-02-10T01:35:43;2.65;;;1.98;;
43311;SDS011;30041;48.300;16.352;2023-02-10T01:38:08;2.22;;;1.65;;
43311;SDS011;30041;48.300;16.352;2023-02-10T01:40:34;2.10;;;1.60;;
43311;SDS011;30041;48.300;16.352;2023-02-10T01:43:00;2.50;;;1.58;;
43311;SDS011;30041;48.300;16.352;2023-02-10T01:45:29;1.88;;;1.30;;
43311;SDS011;30041;48.300;16.352;2023-02-10T01:47:58;2.63;;;1.77;;
43311;SDS011;30041;48.300;16.352;2023-02-10T01:50:29;1.95;;;1.50;;
43311;SDS011;30041;48.300;16.352;2023-02-10T01:53:01;2.42;;;1.65;;
43311;SDS011;30041;48.300;16.352;2023-02-10T01:55:28;2.00;;;1.60;;
43311;SDS011;30041;48.300;16.352;2023-02-10T01:57:57;1.88;;;1.42;;
43311;SDS011;30041;48.300;16.352;2023-02-10T02:00:24;2.30;;;1.60;;
43311;SDS011;30041;48.300;16.352;2023-02-10T02:02:50;2.22;;;1.60;;
43311;SDS011;30041;48.300;16.352;2023-02-10T02:05:27;2.33;;;1.58;;
43311;SDS011;30041;48.300;16.352;2023-02-10T02:07:56;2.10;;;1.48;;
43311;SDS011;30041;48.300;16.352;2023-02-10T02:10:38;1.98;;;1.58;;
43311;SDS011;30041;48.300;16.352;2023-02-10T02:13:15;2.00;;;1.50;;
43311;SDS011;30041;48.300;16.352;2023-02-10T02:15:54;1.65;;;1.40;;
43311;SDS011;30041;48.300;16.352;2023-02-10T02:18:45;1.90;;;1.48;;
43311;SDS011;30041;48.300;16.352;2023-02-10T02:26:55;1.95;;;1.40;;
43311;SDS011;30041;48.300;16.352;2023-02-10T02:29:30;2.17;;;1.50;;
43311;SDS011;30041;48.300;16.352;2023-02-10T02:34:49;2.10;;;1.55;;
43311;SDS011;30041;48.300;16.352;2023-02-10T02:37:27;1.85;;;1.30;;
43311;SDS011;30041;48.300;16.352;2023-02-10T02:39:56;1.83;;;1.30;;
43311;SDS011;30041;48.300;16.352;2023-02-10T02:42:25;1.63;;;1.23;;
43311;SDS011;30041;48.300;16.352;2023-02-10T02:59:39;1.80;;;1.40;;
43311;SDS011;30041;48.300;16.352;2023-02-10T03:02:11;1.27;;;1.08;;
43311;SDS011;30041;48.300;16.352;2023-02-10T03:04:38;1.73;;;1.15;;
43311;SDS011;30041;48.300;16.352;2023-02-10T03:07:05;1.80;;;1.38;;
43311;SDS011;30041;48.300;16.352;2023-02-10T03:09:31;1.98;;;1.40;;
43311;SDS011;30041;48.300;16.352;2023-02-10T03:11:58;1.85;;;1.48;;
43311;SDS011;30041;48.300;16.352;2023-02-10T03:14:24;1.92;;;1.30;;
43311;SDS011;30041;48.300;16.352;2023-02-10T03:16:50;1.50;;;1.10;;
43311;SDS011;30041;48.300;16.352;2023-02-10T03:19:16;1.67;;;1.27;;
43311;SDS011;30041;48.300;16.352;2023-02-10T03:21:41;1.50;;;1.20;;
43311;SDS011;30041;48.300;16.352;2023-02-10T03:24:07;1.50;;;1.30;;
43311;SDS011;30041;48.300;16.352;2023-02-10T03:26:33;1.60;;;1.30;;
43311;SDS011;30041;48.300;16.352;2023-02-10T03:28:58;1.45;;;1.20;;
43311;SDS011;30041;48.300;16.352;2023-02-10T03:31:24;1.73;;;1.30;;
43311;SDS011;30041;48.300;16.352;2023-02-10T03:33:49;1.85;;;1.10;;
43311;SDS011;30041;48.300;16.352;2023-02-10T03:36:15;1.77;;;1.20;;
43311;SDS011;30041;48.300;16.352;2023-02-10T03:38:40;1.58;;;1.10;;
43311;SDS011;30041;48.300;16.352;2023-02-10T03:41:06;1.55;;;1.10;;
43311;SDS011;30041;48.300;16.352;2023-02-10T03:43:31;1.40;;;1.02;;
43311;SDS011;30041;48.300;16.352;2023-02-10T03:46:00;1.40;;;1.10;;
43311;SDS011;30041;48.300;16.352;2023-02-10T03:48:27;1.65;;;1.20;;
43311;SDS011;30041;48.300;16.352;2023-02-10T03:50:53;1.75;;;1.20;;
43311;SDS011;30041;48.300;16.352;2023-02-10T03:53:19;1.65;;;1.20;;
43311;SDS011;30041;48.300;16.352;2023-02-10T03:55:44;1.40;;;1.10;;
43311;SDS011;30041;48.300;16.352;2023-02-10T03:58:10;1.23;;;0.98;;
43311;SDS011;30041;48.300;16.352;2023-02-10T04:00:35;1.30;;;1.00;;
43311;SDS011;30041;48.300;16.352;2023-02-10T04:03:01;1.23;;;1.02;;
43311;SDS011;30041;48.300;16.352;2023-02-10T04:05:26;1.10;;;1.00;;
43311;SDS011;30041;48.300;16.352;2023-02-10T04:07:52;1.40;;;1.08;;
43311;SDS011;30041;48.300;16.352;2023-02-10T04:10:18;1.30;;;0.90;;
43311;SDS011;30041;48.300;16.352;2023-02-10T04:12:43;1.42;;;1.13;;
43311;SDS011;30041;48.300;16.352;2023-02-10T04:15:09;1.10;;;1.00;;
43311;SDS011;30041;48.300;16.352;2023-02-10T04:17:34;1.23;;;1.00;;
43311;SDS011;30041;48.300;16.352;2023-02-10T04:20:00;1.70;;;1.20;;
43311;SDS011;30041;48.300;16.352;2023-02-10T04:22:25;1.20;;;0.93;;
43311;SDS011;30041;48.300;16.352;2023-02-10T04:24:51;1.30;;;1.13;;
43311;SDS011;30041;48.300;16.352;2023-02-10T04:27:17;1.15;;;0.98;;
43311;SDS011;30041;48.300;16.352;2023-02-10T04:29:42;1.20;;;0.95;;
43311;SDS011;30041;48.300;16.352;2023-02-10T04:32:08;1.35;;;0.90;;
43311;SDS011;30041;48.300;16.352;2023-02-10T04:34:33;1.30;;;1.00;;
43311;SDS011;30041;48.300;16.352;2023-02-10T04:36:59;0.90;;;0.70;;
43311;SDS011;30041;48.300;16.352;2023-02-10T04:39:25;1.23;;;0.93;;
43311;SDS011;30041;48.300;16.352;2023-02-10T04:41:50;1.30;;;1.00;;
43311;SDS011;30041;48.300;16.352;2023-02-10T04:44:16;1.23;;;1.02;;
43311;SDS011;30041;48.300;16.352;2023-02-10T04:46:41;1.63;;;1.00;;
43311;SDS011;30041;48.300;16.352;2023-02-10T04:49:07;0.80;;;0.80;;
43311;SDS011;30041;48.300;16.352;2023-02-10T04:51:33;1.02;;;0.93;;
43311;SDS011;30041;48.300;16.352;2023-02-10T04:53:58;1.05;;;0.85;;
43311;SDS011;30041;48.300;16.352;2023-02-10T04:56:24;1.10;;;0.95;;
43311;SDS011;30041;48.300;16.352;2023-02-10T04:58:49;0.98;;;0.88;;
43311;SDS011;30041;48.300;16.352;2023-02-10T05:01:15;1.30;;;0.95;;
43311;SDS011;30041;48.300;16.352;2023-02-10T05:03:41;1.42;;;1.02;;
43311;SDS011;30041;48.300;16.352;2023-02-10T05:06:10;1.00;;;0.70;;
43311;SDS011;30041;48.300;16.352;2023-02-10T05:08:38;1.15;;;0.90;;
43311;SDS011;30041;48.300;16.352;2023-02-10T05:11:04;1.15;;;0.80;;
43311;SDS011;30041;48.300;16.352;2023-02-10T05:13:29;0.70;;;0.70;;
43311;SDS011;30041;48.300;16.352;2023-02-10T05:15:55;0.93;;;0.70;;
43311;SDS011;30041;48.300;16.352;2023-02-10T05:18:20;0.70;;;0.65;;
43311;SDS011;30041;48.300;16.352;2023-02-10T05:20:46;1.15;;;0.80;;
43311;SDS011;30041;48.300;16.352;2023-02-10T05:23:11;0.80;;;0.70;;
43311;SDS011;30041;48.300;16.352;2023-02-10T05:25:37;0.93;;;0.73;;
43311;SDS011;30041;48.300;16.352;2023-02-10T05:28:02;1.27;;;0.70;;
43311;SDS011;30041;48.300;16.352;2023-02-10T05:30:28;0.80;;;0.50;;
43311;SDS011;30041;48.300;16.352;2023-02-10T05:32:54;0.90;;;0.60;;
43311;SDS011;30041;48.300;16.352;2023-02-10T05:35:19;1.10;;;0.60;;
43311;SDS011;30041;48.300;16.352;2023-02-10T05:37:45;0.50;;;0.50;;
43311;SDS011;30041;48.300;16.352;2023-02-10T05:40:10;0.45;;;0.45;;
43311;SDS011;30041;48.300;16.352;2023-02-10T05:42:36;0.68;;;0.50;;
43311;SDS011;30041;48.300;16.352;2023-02-10T05:45:02;0.60;;;0.50;;
43311;SDS011;30041;48.300;16.352;2023-02-10T05:47:27;0.50;;;0.40;;
43311;SDS011;30041;48.300;16.352;2023-02-10T05:49:53;0.57;;;0.50;;
43311;SDS011;30041;48.300;16.352;2023-02-10T05:52:19;0.32;;;0.32;;
43311;SDS011;30041;48.300;16.352;2023-02-10T05:54:44;0.50;;;0.40;;
43311;SDS011;30041;48.300;16.352;2023-02-10T05:57:10;0.45;;;0.40;;
43311;SDS011;30041;48.300;16.352;2023-02-10T05:59:35;0.30;;;0.30;;
43311;SDS011;30041;48.300;16.352;2023-02-10T06:02:01;0.30;;;0.30;;
43311;SDS011;30041;48.300;16.352;2023-02-10T06:04:26;0.30;;;0.28;;
43311;SDS011;30041;48.300;16.352;2023-02-10T06:06:52;0.32;;;0.25;;
43311;SDS011;30041;48.300;16.352;2023-02-10T06:09:18;0.35;;;0.30;;
43311;SDS011;30041;48.300;16.352;2023-02-10T06:11:43;0.77;;;0.43;;
43311;SDS011;30041;48.300;16.352;2023-02-10T06:14:09;0.50;;;0.35;;
43311;SDS011;30041;48.300;16.352;2023-02-10T06:16:34;0.40;;;0.30;;
43311;SDS011;30041;48.300;16.352;2023-02-10T06:19:00;3.55;;;0.70;;
43311;SDS011;30041;48.300;16.352;2023-02-10T06:21:25;7.15;;;1.90;;
43311;SDS011;30041;48.300;16.352;2023-02-10T06:23:51;7.90;;;3.05;;
43311;SDS011;30041;48.300;16.352;2023-02-10T06:26:17;11.13;;;3.33;;
43311;SDS011;30041;48.300;16.352;2023-02-10T06:28:43;8.13;;;3.30;;
43311;SDS011;30041;48.300;16.352;2023-02-10T06:31:08;8.27;;;4.13;;
43311;SDS011;30041;48.300;16.352;2023-02-10T06:33:34;9.50;;;4.00;;
43311;SDS011;30041;48.300;16.352;2023-02-10T06:36:01;6.82;;;4.03;;
43311;SDS011;30041;48.300;16.352;2023-02-10T06:38:30;5.85;;;4.00;;
43311;SDS011;30041;48.300;16.352;2023-02-10T06:40:56;10.07;;;4.07;;
43311;SDS011;30041;48.300;16.352;2023-02-10T06:43:22;6.82;;;3.60;;
43311;SDS011;30041;48.300;16.352;2023-02-10T06:45:47;11.35;;;3.85;;
43311;SDS011;30041;48.300;16.352;2023-02-10T06:48:13;10.82;;;5.05;;
43311;SDS011;30041;48.300;16.352;2023-02-10T06:50:39;11.18;;;4.85;;
43311;SDS011;30041;48.300;16.352;2023-02-10T06:53:04;9.23;;;4.57;;
43311;SDS011;30041;48.300;16.352;2023-02-10T06:55:30;7.03;;;4.53;;
43311;SDS011;30041;48.300;16.352;2023-02-10T06:57:59;8.73;;;4.00;;
43311;SDS011;30041;48.300;16.352;2023-02-10T07:00:25;16.15;;;4.78;;
43311;SDS011;30041;48.300;16.352;2023-02-10T07:02:50;9.57;;;4.55;;
43311;SDS011;30041;48.300;16.352;2023-02-10T07:05:16;10.13;;;4.28;;
43311;SDS011;30041;48.300;16.352;2023-02-10T07:07:42;8.52;;;3.80;;
43311;SDS011;30041;48.300;16.352;2023-02-10T07:10:07;7.25;;;3.50;;
43311;SDS011;30041;48.300;16.352;2023-02-10T07:12:33;9.05;;;3.30;;
43311;SDS011;30041;48.300;16.352;2023-02-10T07:14:59;5.35;;;3.28;;
43311;SDS011;30041;48.300;16.352;2023-02-10T07:17:25;6.13;;;3.10;;
43311;SDS011;30041;48.300;16.352;2023-02-10T07:19:50;7.65;;;3.17;;
43311;SDS011;30041;48.300;16.352;2023-02-10T07:22:16;4.68;;;3.22;;
43311;SDS011;30041;48.300;16.352;2023-02-10T07:24:42;5.15;;;2.90;;
43311;SDS011;30041;48.300;16.352;2023-02-10T07:27:07;4.95;;;2.65;;
43311;SDS011;30041;48.300;16.352;2023-02-10T07:29:33;4.55;;;2.70;;
43311;SDS011;30041;48.300;16.352;2023-02-10T07:31:58;4.10;;;2.50;;
43311;SDS011;30041;48.300;16.352;2023-02-10T07:34:24;7.00;;;2.33;;
43311;SDS011;30041;48.300;16.352;2023-02-10T07:36:50;2.45;;;1.90;;
43311;SDS011;30041;48.300;16.352;2023-02-10T07:39:16;3.60;;;1.92;;
43311;SDS011;30041;48.300;16.352;2023-02-10T07:41:41;3.92;;;2.00;;
43311;SDS011;30041;48.300;16.352;2023-02-10T07:44:07;3.63;;;2.00;;
43311;SDS011;30041;48.300;16.352;2023-02-10T07:46:32;6.05;;;2.33;;
43311;SDS011;30041;48.300;16.352;2023-02-10T07:48:58;5.35;;;2.55;;
43311;SDS011;30041;48.300;16.352;2023-02-10T07:51:23;4.80;;;2.40;;
43311;SDS011;30041;48.300;16.352;2023-02-10T07:53:49;7.28;;;2.08;;
43311;SDS011;30041;48.300;16.352;2023-02-10T07:56:14;3.60;;;2.00;;
43311;SDS011;30041;48.300;16.352;2023-02-10T07:58:40;5.00;;;1.85;;
43311;SDS011;30041;48.300;16.352;2023-02-10T08:01:06;3.97;;;1.85;;
43311;SDS011;30041;48.300;16.352;2023-02-10T08:03:32;6.18;;;1.88;;
43311;SDS011;30041;48.300;16.352;2023-02-10T08:05:58;4.50;;;1.60;;
43311;SDS011;30041;48.300;16.352;2023-02-10T08:08:24;7.15;;;1.77;;
43311;SDS011;30041;48.300;16.352;2023-02-10T08:10:49;7.70;;;2.13;;
43311;SDS011;30041;48.300;16.352;2023-02-10T08:13:14;7.85;;;1.60;;
43311;SDS011;30041;48.300;16.352;2023-02-10T08:15:40;4.75;;;1.70;;
43311;SDS011;30041;48.300;16.352;2023-02-10T08:18:06;6.10;;;1.60;;
43311;SDS011;30041;48.300;16.352;2023-02-10T08:20:31;9.20;;;1.90;;
43311;SDS011;30041;48.300;16.352;2023-02-10T08:22:57;6.43;;;1.90;;
43311;SDS011;30041;48.300;16.352;2023-02-10T08:25:22;5.30;;;1.92;;
43311;SDS011;30041;48.300;16.352;2023-02-10T08:27:48;4.80;;;2.00;;
43311;SDS011;30041;48.300;16.352;2023-02-10T08:30:14;10.30;;;2.30;;
43311;SDS011;30041;48.300;16.352;2023-02-10T08:32:39;6.85;;;2.38;;
43311;SDS011;30041;48.300;16.352;2023-02-10T08:35:05;5.13;;;1.95;;
43311;SDS011;30041;48.300;16.352;2023-02-10T08:37:31;7.47;;;2.10;;
43311;SDS011;30041;48.300;16.352;2023-02-10T08:39:56;8.27;;;2.13;;
43311;SDS011;30041;48.300;16.352;2023-02-10T08:42:22;6.10;;;1.83;;
43311;SDS011;30041;48.300;16.352;2023-02-10T08:44:47;15.90;;;4.20;;
43311;SDS011;30041;48.300;16.352;2023-02-10T08:47:13;15.82;;;4.80;;
43311;SDS011;30041;48.300;16.352;2023-02-10T08:49:38;16.20;;;5.25;;
43311;SDS011;30041;48.300;16.352;2023-02-10T08:52:04;7.78;;;4.82;;
43311;SDS011;30041;48.300;16.352;2023-02-10T08:54:29;14.15;;;4.93;;
43311;SDS011;30041;48.300;16.352;2023-02-10T08:56:55;13.97;;;4.73;;
43311;SDS011;30041;48.300;16.352;2023-02-10T08:59:20;8.75;;;4.30;;
43311;SDS011;30041;48.300;16.352;2023-02-10T09:01:46;12.70;;;5.05;;
43311;SDS011;30041;48.300;16.352;2023-02-10T09:04:12;16.25;;;5.10;;
43311;SDS011;30041;48.300;16.352;2023-02-10T09:06:38;14.82;;;4.38;;
43311;SDS011;30041;48.300;16.352;2023-02-10T09:09:06;14.50;;;4.43;;
43311;SDS011;30041;48.300;16.352;2023-02-10T09:11:32;9.85;;;4.30;;
43311;SDS011;30041;48.300;16.352;2023-02-10T09:13:58;11.32;;;4.00;;
43311;SDS011;30041;48.300;16.352;2023-02-10T09:16:23;8.75;;;3.83;;
43311;SDS011;30041;48.300;16.352;2023-02-10T09:18:49;13.90;;;3.60;;
43311;SDS011;30041;48.300;16.352;2023-02-10T09:21:18;10.80;;;3.78;;
43311;SDS011;30041;48.300;16.352;2023-02-10T09:23:44;13.70;;;3.83;;
43311;SDS011;30041;48.300;16.352;2023-02-10T09:26:09;11.32;;;3.50;;
43311;SDS011;30041;48.300;16.352;2023-02-10T09:28:35;9.10;;;3.63;;
43311;SDS011;30041;48.300;16.352;2023-02-10T09:31:05;9.05;;;3.42;;
43311;SDS011;30041;48.300;16.352;2023-02-10T09:33:32;9.98;;;3.35;;
43311;SDS011;30041;48.300;16.352;2023-02-10T09:35:57;9.32;;;3.33;;
43311;SDS011;30041;48.300;16.352;2023-02-10T09:38:23;9.48;;;2.78;;
43311;SDS011;30041;48.300;16.352;2023-02-10T09:52:01;10.13;;;4.32;;
43311;SDS011;30041;48.300;16.352;2023-02-10T09:54:40;15.40;;;5.07;;
43311;SDS011;30041;48.300;16.352;2023-02-10T09:57:13;13.30;;;4.65;;
43311;SDS011;30041;48.300;16.352;2023-02-10T09:59:42;12.75;;;5.95;;
43311;SDS011;30041;48.300;16.352;2023-02-10T10:05:14;12.25;;;6.45;;
43311;SDS011;30041;48.300;16.352;2023-02-10T10:07:48;17.20;;;6.63;;
43311;SDS011;30041;48.300;16.352;2023-02-10T10:10:20;13.10;;;5.38;;
43311;SDS011;30041;48.300;16.352;2023-02-10T10:13:06;13.23;;;5.25;;
43311;SDS011;30041;48.300;16.352;2023-02-10T10:16:38;13.32;;;5.13;;
43311;SDS011;30041;48.300;16.352;2023-02-10T10:19:22;8.18;;;4.40;;
43311;SDS011;30041;48.300;16.352;2023-02-10T10:25:10;14.50;;;5.20;;
43311;SDS011;30041;48.300;16.352;2023-02-10T10:30:29;11.65;;;4.55;;
43311;SDS011;30041;48.300;16.352;2023-02-10T10:36:20;9.43;;;4.18;;
43311;SDS011;30041;48.300;16.352;2023-02-10T10:38:55;13.10;;;4.32;;
43311;SDS011;30041;48.300;16.352;2023-02-10T10:41:25;11.90;;;5.10;;
43311;SDS011;30041;48.300;16.352;2023-02-10T10:43:54;10.82;;;4.47;;
43311;SDS011;30041;48.300;16.352;2023-02-10T10:46:28;10.10;;;4.53;;
43311;SDS011;30041;48.300;16.352;2023-02-10T10:49:10;11.00;;;4.80;;
43311;SDS011;30041;48.300;16.352;2023-02-10T10:51:36;8.60;;;4.43;;
43311;SDS011;30041;48.300;16.352;2023-02-10T10:54:02;10.80;;;4.55;;
43311;SDS011;30041;48.300;16.352;2023-02-10T10:56:35;8.88;;;4.32;;
43311;SDS011;30041;48.300;16.352;2023-02-10T10:59:52;11.00;;;4.38;;
43311;SDS011;30041;48.300;16.352;2023-02-10T11:01:55;10.10;;;4.35;;
43311;SDS011;30041;48.300;16.352;2023-02-10T11:04:22;11.90;;;4.68;;
43311;SDS011;30041;48.300;16.352;2023-02-10T11:06:53;11.27;;;4.47;;
43311;SDS011;30041;48.300;16.352;2023-02-10T11:09:38;8.82;;;4.25;;
43311;SDS011;30041;48.300;16.352;2023-02-10T11:12:06;7.97;;;3.85;;
43311;SDS011;30041;48.300;16.352;2023-02-10T11:14:46;8.85;;;4.60;;
43311;SDS011;30041;48.300;16.352;2023-02-10T11:17:26;8.52;;;4.25;;
43311;SDS011;30041;48.300;16.352;2023-02-10T11:19:58;10.30;;;4.40;;
43311;SDS011;30041;48.300;16.352;2023-02-10T11:22:36;7.80;;;3.95;;
43311;SDS011;30041;48.300;16.352;2023-02-10T11:25:05;9.80;;;4.18;;
43311;SDS011;30041;48.300;16.352;2023-02-10T11:27:56;9.93;;;4.18;;
43311;SDS011;30041;48.300;16.352;2023-02-10T11:30:25;9.73;;;3.80;;
43311;SDS011;30041;48.300;16.352;2023-02-10T11:32:56;11.25;;;4.10;;
43311;SDS011;30041;48.300;16.352;2023-02-10T11:35:22;17.23;;;4.55;;
43311;SDS011;30041;48.300;16.352;2023-02-10T11:37:51;11.00;;;4.30;;
43311;SDS011;30041;48.300;16.352;2023-02-10T11:40:21;10.63;;;3.80;;
43311;SDS011;30041;48.300;16.352;2023-02-10T11:42:56;12.20;;;3.88;;
43311;SDS011;30041;48.300;16.352;2023-02-10T11:45:26;14.23;;;3.78;;
43311;SDS011;30041;48.300;16.352;2023-02-10T11:50:37;7.32;;;3.30;;
43311;SDS011;30041;48.300;16.352;2023-02-10T11:53:03;10.00;;;3.38;;
43311;SDS011;30041;48.300;16.352;2023-02-10T11:55:37;7.30;;;3.22;;
43311;SDS011;30041;48.300;16.352;2023-02-10T11:58:20;8.52;;;2.78;;
43311;SDS011;30041;48.300;16.352;2023-02-10T12:01:24;6.30;;;2.20;;
43311;SDS011;30041;48.300;16.352;2023-02-10T12:04:29;6.85;;;2.53;;
43311;SDS011;30041;48.300;16.352;2023-02-10T12:07:20;6.88;;;2.28;;
43311;SDS011;30041;48.300;16.352;2023-02-10T12:18:41;5.82;;;1.92;;
43311;SDS011;30041;48.300;16.352;2023-02-10T12:24:01;3.42;;;1.60;;
43311;SDS011;30041;48.300;16.352;2023-02-10T12:26:54;4.05;;;1.80;;
43311;SDS011;30041;48.300;16.352;2023-02-10T12:29:38;2.92;;;1.55;;
43311;SDS011;30041;48.300;16.352;2023-02-10T12:35:43;3.05;;;1.30;;
43311;SDS011;30041;48.300;16.352;2023-02-10T12:38:25;2.55;;;1.20;;
43311;SDS011;30041;48.300;16.352;2023-02-10T12:41:15;2.75;;;1.30;;
43311;SDS011;30041;48.300;16.352;2023-02-10T12:52:34;2.28;;;1.10;;
43311;SDS011;30041;48.300;16.352;2023-02-10T13:00:27;2.10;;;0.98;;
43311;SDS011;30041;48.300;16.352;2023-02-10T13:03:00;1.30;;;0.80;;
43311;SDS011;30041;48.300;16.352;2023-02-10T13:05:42;0.73;;;0.60;;
43311;SDS011;30041;48.300;16.352;2023-02-10T13:08:12;0.98;;;0.60;;
43311;SDS011;30041;48.300;16.352;2023-02-10T13:10:48;1.38;;;0.70;;
43311;SDS011;30041;48.300;16.352;2023-02-10T13:13:22;1.70;;;0.63;;
43311;SDS011;30041;48.300;16.352;2023-02-10T13:18:29;1.50;;;0.80;;
43311;SDS011;30041;48.300;16.352;2023-02-10T13:21:04;2.13;;;0.50;;
43311;SDS011;30041;48.300;16.352;2023-02-10T13:23:49;0.77;;;0.50;;
43311;SDS011;30041;48.300;16.352;2023-02-10T13:29:26;0.80;;;0.40;;
43311;SDS011;30041;48.300;16.352;2023-02-10T13:35:14;1.02;;;0.60;;
43311;SDS011;30041;48.300;16.352;2023-02-10T13:37:46;0.43;;;0.32;;
43311;SDS011;30041;48.300;16.352;2023-02-10T13:40:18;0.80;;;0.40;;
43311;SDS011;30041;48.300;16.352;2023-02-10T13:42:47;0.60;;;0.30;;
43311;SDS011;30041;48.300;16.352;2023-02-10T13:45:16;0.57;;;0.40;;
43311;SDS011;30041;48.300;16.352;2023-02-10T13:52:49;0.52;;;0.30;;
43311;SDS011;30041;48.300;16.352;2023-02-10T13:57:53;0.40;;;0.17;;
43311;SDS011;30041;48.300;16.352;2023-02-10T14:00:43;0.30;;;0.27;;
43311;SDS011;30041;48.300;16.352;2023-02-10T14:08:27;0.30;;;0.20;;
43311;SDS011;30041;48.300;16.352;2023-02-10T14:11:23;0.40;;;0.30;;
43311;SDS011;30041;48.300;16.352;2023-02-10T14:14:03;0.20;;;0.10;;
43311;SDS011;30041;48.300;16.352;2023-02-10T14:16:41;0.20;;;0.20;;
43311;SDS011;30041;48.300;16.352;2023-02-10T14:19:43;0.40;;;0.22;;
43311;SDS011;30041;48.300;16.352;2023-02-10T14:22:02;0.10;;;0.10;;
43311;SDS011;30041;48.300;16.352;2023-02-10T14:24:31;0.10;;;0.10;;
43311;SDS011;30041;48.300;16.352;2023-02-10T14:27:00;0.50;;;0.20;;
43311;SDS011;30041;48.300;16.352;2023-02-10T14:29:28;0.30;;;0.10;;
43311;SDS011;30041;48.300;16.352;2023-02-10T14:31:56;0.10;;;0.10;;
43311;SDS011;30041;48.300;16.352;2023-02-10T14:34:28;0.10;;;0.10;;
43311;SDS011;30041;48.300;16.352;2023-02-10T14:37:01;0.28;;;0.20;;
43311;SDS011;30041;48.300;16.352;2023-02-10T14:39:38;0.32;;;0.20;;
43311;SDS011;30041;48.300;16.352;2023-02-10T14:42:04;0.10;;;0.10;;
43311;SDS011;30041;48.300;16.352;2023-02-10T14:44:41;0.20;;;0.10;;
43311;SDS011;30041;48.300;16.352;2023-02-10T14:47:17;0.17;;;0.10;;
43311;SDS011;30041;48.300;16.352;2023-02-10T14:49:47;0.10;;;0.10;;
43311;SDS011;30041;48.300;16.352;2023-02-10T14:54:53;0.28;;;0.20;;
43311;SDS011;30041;48.300;16.352;2023-02-10T14:57:20;0.40;;;0.17;;
43311;SDS011;30041;48.300;16.352;2023-02-10T14:59:56;0.20;;;0.10;;
43311;SDS011;30041;48.300;16.352;2023-02-10T15:02:28;0.55;;;0.20;;
43311;SDS011;30041;48.300;16.352;2023-02-10T15:04:59;0.30;;;0.10;;
43311;SDS011;30041;48.300;16.352;2023-02-10T15:07:31;0.00;;;0.00;;
43311;SDS011;30041;48.300;16.352;2023-02-10T15:10:13;0.10;;;0.10;;
43311;SDS011;30041;48.300;16.352;2023-02-10T15:12:43;1.30;;;0.35;;
43311;SDS011;30041;48.300;16.352;2023-02-10T15:17:48;0.28;;;0.20;;
43311;SDS011;30041;48.300;16.352;2023-02-10T15:20:27;0.20;;;0.13;;
43311;SDS011;30041;48.300;16.352;2023-02-10T15:28:28;0.20;;;0.20;;
43311;SDS011;30041;48.300;16.352;2023-02-10T15:35:52;0.35;;;0.20;;
43311;SDS011;30041;48.300;16.352;2023-02-10T15:38:17;0.40;;;0.10;;
43311;SDS011;30041;48.300;16.352;2023-02-10T15:40:50;0.10;;;0.10;;
43311;SDS011;30041;48.300;16.352;2023-02-10T15:43:25;0.10;;;0.10;;
43311;SDS011;30041;48.300;16.352;2023-02-10T15:48:41;0.10;;;0.10;;
43311;SDS011;30041;48.300;16.352;2023-02-10T15:51:09;0.03;;;0.00;;
43311;SDS011;30041;48.300;16.352;2023-02-10T15:53:46;0.20;;;0.10;;
43311;SDS011;30041;48.300;16.352;2023-02-10T15:56:12;0.10;;;0.10;;
43311;SDS011;30041;48.300;16.352;2023-02-10T15:58:37;0.10;;;0.10;;
43311;SDS011;30041;48.300;16.352;2023-02-10T16:01:03;0.17;;;0.08;;
43311;SDS011;30041;48.300;16.352;2023-02-10T16:03:28;0.15;;;0.00;;
43311;SDS011;30041;48.300;16.352;2023-02-10T16:05:54;0.20;;;0.10;;
43311;SDS011;30041;48.300;16.352;2023-02-10T16:08:20;0.47;;;0.10;;
43311;SDS011;30041;48.300;16.352;2023-02-10T16:10:47;0.08;;;0.08;;
43311;SDS011;30041;48.300;16.352;2023-02-10T16:13:14;1.02;;;0.10;;
43311;SDS011;30041;48.300;16.352;2023-02-10T16:15:40;0.00;;;0.00;;
43311;SDS011;30041;48.300;16.352;2023-02-10T16:18:10;0.17;;;0.00;;
43311;SDS011;30041;48.300;16.352;2023-02-10T16:20:38;0.00;;;0.00;;
43311;SDS011;30041;48.300;16.352;2023-02-10T16:23:04;0.00;;;0.00;;
43311;SDS011;30041;48.300;16.352;2023-02-10T16:25:34;0.00;;;0.00;;
43311;SDS011;30041;48.300;16.352;2023-02-10T16:28:00;0.30;;;0.10;;
43311;SDS011;30041;48.300;16.352;2023-02-10T16:30:26;0.40;;;0.10;;
43311;SDS011;30041;48.300;16.352;2023-02-10T16:32:53;2.53;;;0.77;;
43311;SDS011;30041;48.300;16.352;2023-02-10T16:35:20;2.60;;;1.23;;
43311;SDS011;30041;48.300;16.352;2023-02-10T16:37:47;4.90;;;1.40;;
43311;SDS011;30041;48.300;16.352;2023-02-10T16:40:17;4.03;;;2.05;;
43311;SDS011;30041;48.300;16.352;2023-02-10T16:42:46;4.88;;;2.05;;